createdAt,value
2019-05-18T00:00:09.349Z,15.40
2019-05-18T00:02:38.829Z,14.07
2019-05-18T00:05:09.005Z,14.33
2019-05-18T00:07:38.474Z,16.40
2019-05-18T00:10:08.769Z,14.07
2019-05-18T00:12:38.222Z,14.73
2019-05-18T00:15:09.554Z,14.30
2019-05-18T00:17:39.016Z,13.63
2019-05-18T00:20:09.407Z,14.57
2019-05-18T00:22:38.936Z,15.47
2019-05-18T00:25:08.392Z,15.37
2019-05-18T00:27:37.863Z,12.93
2019-05-18T00:30:07.553Z,14.60
2019-05-18T00:32:37.078Z,14.00
2019-05-18T00:35:07.047Z,13.77
2019-05-18T00:37:36.595Z,13.67
2019-05-18T00:40:07.154Z,14.60
2019-05-18T00:42:38.174Z,16.57
2019-05-18T00:45:07.757Z,16.77
2019-05-18T00:47:41.278Z,17.13
2019-05-18T00:50:08.863Z,18.40
2019-05-18T00:52:38.393Z,16.63
2019-05-18T00:55:08.535Z,18.03
2019-05-18T00:57:38.049Z,17.93
2019-05-18T01:00:07.769Z,17.23
2019-05-18T01:02:37.261Z,19.23
2019-05-18T01:05:07.388Z,19.00
2019-05-18T01:07:36.880Z,20.17
2019-05-18T01:10:06.718Z,19.27
2019-05-18T01:12:36.231Z,18.37
2019-05-18T01:15:06.990Z,17.37
2019-05-18T01:17:36.436Z,18.50
2019-05-18T01:20:07.362Z,17.90
2019-05-18T01:22:36.931Z,16.87
2019-05-18T01:25:06.803Z,16.50
2019-05-18T01:27:36.406Z,16.83
2019-05-18T01:30:06.922Z,16.47
2019-05-18T01:32:36.486Z,19.10
2019-05-18T01:35:06.011Z,18.13
2019-05-18T01:37:35.485Z,19.97
2019-05-18T01:40:05.417Z,20.53
2019-05-18T01:42:34.919Z,16.50
2019-05-18T01:45:16.221Z,16.73
2019-05-18T01:47:35.915Z,16.33
2019-05-18T01:50:05.750Z,15.37
2019-05-18T01:52:35.240Z,16.33
2019-05-18T01:55:04.898Z,17.83
2019-05-18T01:57:34.352Z,16.40
2019-05-18T02:00:04.142Z,17.87
2019-05-18T02:02:33.724Z,18.37
2019-05-18T02:05:03.170Z,16.97
2019-05-18T02:07:32.662Z,14.87
2019-05-18T02:10:02.526Z,16.10
2019-05-18T02:12:32.287Z,15.10
2019-05-18T02:15:01.908Z,15.47
2019-05-18T02:17:31.497Z,16.13
2019-05-18T02:20:00.983Z,17.13
2019-05-18T02:22:30.494Z,16.30
2019-05-18T02:24:59.944Z,15.77
2019-05-18T02:27:29.433Z,16.80
2019-05-18T02:29:58.886Z,16.47
2019-05-18T02:32:28.409Z,16.97
2019-05-18T02:34:57.917Z,17.73
2019-05-18T02:37:27.426Z,16.70
2019-05-18T02:39:56.961Z,15.50
2019-05-18T02:42:30.536Z,15.53
2019-05-18T02:44:57.701Z,17.03
2019-05-18T02:47:27.138Z,15.87
2019-05-18T02:49:56.621Z,15.10
2019-05-18T02:52:26.140Z,16.37
2019-05-18T02:54:55.601Z,17.30
2019-05-18T02:57:25.127Z,15.30
2019-05-18T02:59:54.601Z,16.17
2019-05-18T03:02:26.193Z,15.67
2019-05-18T03:04:55.843Z,16.53
2019-05-18T03:07:25.373Z,19.07
2019-05-18T03:09:54.852Z,16.60
2019-05-18T03:12:24.516Z,15.53
2019-05-18T03:14:54.011Z,16.30
2019-05-18T03:17:24.551Z,17.53
2019-05-18T03:19:54.002Z,18.97
2019-05-18T03:22:23.507Z,20.20
2019-05-18T03:24:52.979Z,17.43
2019-05-18T03:27:24.611Z,20.03
2019-05-18T03:29:54.108Z,21.03
2019-05-18T03:32:23.722Z,18.20
2019-05-18T03:34:53.282Z,19.27
2019-05-18T03:37:22.829Z,19.73
2019-05-18T03:39:52.380Z,19.23
2019-05-18T03:42:21.892Z,19.70
2019-05-18T03:44:51.394Z,19.70
2019-05-18T03:47:20.886Z,18.63
2019-05-18T03:49:50.375Z,19.83
2019-05-18T03:52:19.904Z,23.10
2019-05-18T03:54:49.575Z,20.47
2019-05-18T03:57:19.106Z,22.37
2019-05-18T03:59:48.588Z,21.13
2019-05-18T04:02:18.113Z,19.63
2019-05-18T04:04:47.579Z,19.87
2019-05-18T04:07:17.123Z,17.67
2019-05-18T04:09:46.694Z,18.10
2019-05-18T04:12:16.193Z,18.40
2019-05-18T04:14:45.679Z,18.77
2019-05-18T04:17:15.214Z,18.53
2019-05-18T04:19:47.348Z,17.53
2019-05-18T04:22:15.894Z,18.20
2019-05-18T04:24:45.405Z,19.80
2019-05-18T04:27:14.899Z,17.53
2019-05-18T04:29:44.397Z,20.27
2019-05-18T04:32:13.893Z,22.50
2019-05-18T04:34:43.343Z,23.27
2019-05-18T04:37:12.856Z,23.63
2019-05-18T04:39:42.350Z,22.30
2019-05-18T04:42:11.877Z,21.93
2019-05-18T04:44:41.322Z,21.63
2019-05-18T04:47:10.853Z,21.77
2019-05-18T04:49:40.308Z,22.43
2019-05-18T04:52:09.810Z,21.97
2019-05-18T04:54:39.311Z,21.03
2019-05-18T04:57:08.813Z,24.83
2019-05-18T04:59:38.749Z,21.00
2019-05-18T05:02:08.289Z,19.97
2019-05-18T05:04:37.770Z,20.43
2019-05-18T05:07:07.321Z,21.37
2019-05-18T05:09:36.882Z,20.40
2019-05-18T05:12:06.410Z,21.17
2019-05-18T05:14:35.904Z,22.13
2019-05-18T05:17:05.458Z,23.07
2019-05-18T05:19:34.914Z,23.80
2019-05-18T05:22:04.411Z,23.00
2019-05-18T05:24:33.918Z,27.20
2019-05-18T05:27:03.423Z,23.87
2019-05-18T05:29:32.916Z,26.47
2019-05-18T05:32:02.469Z,25.50
2019-05-18T05:34:31.935Z,25.40
2019-05-18T05:37:01.396Z,24.73
2019-05-18T05:39:30.881Z,25.70
2019-05-18T05:42:00.407Z,24.33
2019-05-18T05:44:29.868Z,23.83
2019-05-18T05:46:59.341Z,25.70
2019-05-18T05:49:28.909Z,24.00
2019-05-18T05:51:58.391Z,31.90
2019-05-18T05:54:27.873Z,24.83
2019-05-18T05:56:57.365Z,26.47
2019-05-18T05:59:26.817Z,24.97
2019-05-18T06:01:56.305Z,24.63
2019-05-18T06:04:25.796Z,24.70
2019-05-18T06:06:55.251Z,26.63
2019-05-18T06:09:24.749Z,26.40
2019-05-18T06:11:54.253Z,23.80
2019-05-18T06:14:23.768Z,25.77
2019-05-18T06:16:53.316Z,25.53
2019-05-18T06:19:22.815Z,26.23
2019-05-18T06:21:52.304Z,26.03
2019-05-18T06:24:21.776Z,27.87
2019-05-18T06:26:51.299Z,27.87
2019-05-18T06:29:20.774Z,28.07
2019-05-18T06:31:50.260Z,26.00
2019-05-18T06:34:19.714Z,26.87
2019-05-18T06:36:49.185Z,27.23
2019-05-18T06:39:18.703Z,28.13
2019-05-18T06:41:48.191Z,26.73
2019-05-18T06:44:17.692Z,29.17
2019-05-18T06:46:47.182Z,25.83
2019-05-18T06:49:16.669Z,30.20
2019-05-18T06:51:46.135Z,29.33
2019-05-18T06:54:15.636Z,27.83
2019-05-18T06:56:45.161Z,27.30
2019-05-18T06:59:16.590Z,26.87
2019-05-18T07:01:46.131Z,25.83
2019-05-18T07:04:15.635Z,27.07
2019-05-18T07:06:45.102Z,27.83
2019-05-18T07:09:15.400Z,26.57
2019-05-18T07:11:44.937Z,27.33
2019-05-18T07:14:25.393Z,24.50
2019-05-18T07:16:45.650Z,25.27
2019-05-18T07:19:15.522Z,25.03
2019-05-18T07:21:45.099Z,25.20
2019-05-18T07:24:14.551Z,26.03
2019-05-18T07:26:44.038Z,26.63
2019-05-18T07:29:13.494Z,25.70
2019-05-18T07:31:43.003Z,26.50
2019-05-18T07:34:12.467Z,27.80
2019-05-18T07:36:41.924Z,29.30
2019-05-18T07:39:11.406Z,28.10
2019-05-18T07:41:46.686Z,26.27
2019-05-18T07:44:12.109Z,25.50
2019-05-18T07:46:41.625Z,24.60
2019-05-18T07:49:11.073Z,37.53
2019-05-18T07:51:40.569Z,32.77
2019-05-18T07:54:10.057Z,32.70
2019-05-18T07:56:39.547Z,35.27
2019-05-18T07:59:08.991Z,34.87
2019-05-18T08:01:38.462Z,34.17
2019-05-18T08:04:08.040Z,31.30
2019-05-18T08:06:37.524Z,34.20
2019-05-18T08:09:08.572Z,33.73
2019-05-18T08:11:38.387Z,34.57
2019-05-18T08:14:07.903Z,32.23
2019-05-18T08:16:37.444Z,33.10
2019-05-18T08:19:06.994Z,30.63
2019-05-18T08:21:36.488Z,33.70
2019-05-18T08:24:06.018Z,33.77
2019-05-18T08:26:35.532Z,32.70
2019-05-18T08:29:05.033Z,32.97
2019-05-18T08:31:34.523Z,33.97
2019-05-18T08:34:04.477Z,31.10
2019-05-18T08:36:34.658Z,31.57
2019-05-18T08:39:04.937Z,31.97
2019-05-18T08:41:34.622Z,30.13
2019-05-18T08:44:04.076Z,29.77
2019-05-18T08:46:33.751Z,30.03
2019-05-18T08:49:03.288Z,29.70
2019-05-18T08:51:32.790Z,30.30
2019-05-18T08:54:02.251Z,27.93
2019-05-18T08:56:31.919Z,25.40
2019-05-18T08:59:01.366Z,26.00
2019-05-18T09:01:30.846Z,24.07
2019-05-18T09:04:00.505Z,27.20
2019-05-18T09:06:30.027Z,25.73
2019-05-18T09:08:59.663Z,25.93
2019-05-18T09:11:29.181Z,23.30
2019-05-18T09:13:58.673Z,23.70
2019-05-18T09:16:28.169Z,24.20
2019-05-18T09:18:57.667Z,26.97
2019-05-18T09:21:27.151Z,25.03
2019-05-18T09:23:56.623Z,21.83
2019-05-18T09:26:26.104Z,21.70
2019-05-18T09:28:55.545Z,21.60
2019-05-18T09:31:25.017Z,23.23
2019-05-18T09:33:54.501Z,21.73
2019-05-18T09:36:24.036Z,22.07
2019-05-18T09:38:53.496Z,21.00
2019-05-18T09:41:22.969Z,20.57
2019-05-18T09:43:52.466Z,19.63
2019-05-18T09:46:21.971Z,19.40
2019-05-18T09:48:51.429Z,19.23
2019-05-18T09:51:20.887Z,19.87
2019-05-18T09:53:51.865Z,20.67
2019-05-18T09:56:21.623Z,20.60
2019-05-18T09:58:51.101Z,20.00
2019-05-18T10:01:20.628Z,19.80
2019-05-18T10:03:50.311Z,18.07
2019-05-18T10:06:19.861Z,18.27
2019-05-18T10:08:49.367Z,18.03
2019-05-18T10:11:18.841Z,19.73
2019-05-18T10:13:48.345Z,17.97
2019-05-18T10:16:17.855Z,17.00
2019-05-18T10:18:47.341Z,16.17
2019-05-18T10:21:16.811Z,17.30
2019-05-18T10:23:46.302Z,17.10
2019-05-18T10:26:15.787Z,16.17
2019-05-18T10:28:45.382Z,16.53
2019-05-18T10:31:14.865Z,16.40
2019-05-18T10:33:44.378Z,16.63
2019-05-18T10:36:13.852Z,19.40
2019-05-18T10:38:43.401Z,18.67
2019-05-18T10:41:12.897Z,13.50
2019-05-18T10:43:47.000Z,13.87
2019-05-18T10:46:13.586Z,13.53
2019-05-18T10:48:43.083Z,13.80
2019-05-18T10:51:12.538Z,12.50
2019-05-18T10:53:42.075Z,11.97
2019-05-18T10:56:11.532Z,11.50
2019-05-18T10:58:41.048Z,11.53
2019-05-18T11:01:10.515Z,11.83
2019-05-18T11:03:39.976Z,12.03
2019-05-18T11:06:09.655Z,12.13
2019-05-18T11:08:39.156Z,11.00
2019-05-18T11:11:08.623Z,11.23
2019-05-18T11:13:38.111Z,11.77
2019-05-18T11:16:07.617Z,10.20
2019-05-18T11:18:37.101Z,11.10
2019-05-18T11:21:06.660Z,11.10
2019-05-18T11:23:43.615Z,10.93
2019-05-18T11:26:07.351Z,12.00
2019-05-18T11:28:36.984Z,10.57
2019-05-18T11:31:06.466Z,9.37
2019-05-18T11:33:35.997Z,9.77
2019-05-18T11:36:05.601Z,8.93
2019-05-18T11:38:35.121Z,8.30
2019-05-18T11:41:04.615Z,8.60
2019-05-18T11:43:34.129Z,8.10
2019-05-18T11:46:03.582Z,8.87
2019-05-18T11:48:33.232Z,8.67
2019-05-18T11:51:02.693Z,7.97
2019-05-18T11:53:32.150Z,10.43
2019-05-18T11:56:01.612Z,10.40
2019-05-18T11:58:31.151Z,9.80
2019-05-18T12:01:00.645Z,8.77
2019-05-18T12:03:30.162Z,7.50
2019-05-18T12:05:59.715Z,6.77
2019-05-18T12:08:29.316Z,7.40
2019-05-18T12:10:58.803Z,7.20
2019-05-18T12:13:28.294Z,7.10
2019-05-18T12:15:57.776Z,8.63
2019-05-18T12:18:27.266Z,6.97
2019-05-18T12:20:56.731Z,7.10
2019-05-18T12:23:26.239Z,6.60
2019-05-18T12:25:55.703Z,7.60
2019-05-18T12:28:25.247Z,6.63
2019-05-18T12:30:54.731Z,5.70
2019-05-18T12:33:24.191Z,5.20
2019-05-18T12:35:53.690Z,4.73
2019-05-18T12:38:23.287Z,4.47
2019-05-18T12:40:52.736Z,4.10
2019-05-18T12:43:22.214Z,4.40
2019-05-18T12:45:51.662Z,4.80
2019-05-18T12:48:21.237Z,4.63
2019-05-18T12:50:50.715Z,5.33
2019-05-18T12:53:20.180Z,4.47
2019-05-18T12:55:49.661Z,4.90
2019-05-18T12:58:19.177Z,2.67
2019-05-18T13:00:48.655Z,2.80
2019-05-18T13:03:18.110Z,2.63
2019-05-18T13:05:47.616Z,2.40
2019-05-18T13:08:17.127Z,2.67
2019-05-18T13:10:46.599Z,2.67
2019-05-18T13:13:16.082Z,3.30
2019-05-18T13:15:45.553Z,2.70
2019-05-18T13:18:15.186Z,3.83
2019-05-18T13:20:44.700Z,3.00
2019-05-18T13:23:14.194Z,3.10
2019-05-18T13:25:43.786Z,3.97
2019-05-18T13:28:13.361Z,3.43
2019-05-18T13:30:42.902Z,3.67
2019-05-18T13:33:12.364Z,3.37
2019-05-18T13:35:44.992Z,3.40
2019-05-18T13:38:13.091Z,3.10
2019-05-18T13:40:42.597Z,3.13
2019-05-18T13:43:12.246Z,3.13
2019-05-18T13:45:41.699Z,3.13
2019-05-18T13:48:11.198Z,3.17
2019-05-18T13:50:40.672Z,3.10
2019-05-18T13:53:10.186Z,4.20
2019-05-18T13:55:39.699Z,3.47
2019-05-18T13:58:09.241Z,3.50
2019-05-18T14:00:38.729Z,3.77
2019-05-18T14:03:08.237Z,3.23
2019-05-18T14:05:37.683Z,3.13
2019-05-18T14:08:07.203Z,3.10
2019-05-18T14:10:36.755Z,3.40
2019-05-18T14:13:06.284Z,3.13
2019-05-18T14:15:35.753Z,2.80
2019-05-18T14:18:05.268Z,3.00
2019-05-18T14:20:34.726Z,2.90
2019-05-18T14:23:04.272Z,2.90
2019-05-18T14:25:33.718Z,3.10
2019-05-18T14:28:03.225Z,2.80
2019-05-18T14:30:32.840Z,2.90
2019-05-18T14:33:02.333Z,3.37
2019-05-18T14:35:33.581Z,3.30
2019-05-18T14:38:03.042Z,3.63
2019-05-18T14:40:32.538Z,3.20
2019-05-18T14:43:02.033Z,3.40
2019-05-18T14:45:31.626Z,3.00
2019-05-18T14:48:01.132Z,3.10
2019-05-18T14:50:30.582Z,3.67
2019-05-18T14:53:00.100Z,3.33
2019-05-18T14:55:33.572Z,3.60
2019-05-18T14:58:00.820Z,3.70
2019-05-18T15:00:30.285Z,3.70
2019-05-18T15:02:59.824Z,3.77
2019-05-18T15:05:29.290Z,3.57
2019-05-18T15:07:58.799Z,4.03
2019-05-18T15:10:28.267Z,3.37
2019-05-18T15:12:57.772Z,3.97
2019-05-18T15:15:27.215Z,3.77
2019-05-18T15:17:56.746Z,3.30
2019-05-18T15:20:26.205Z,3.63
2019-05-18T15:22:55.777Z,5.10
2019-05-18T15:25:25.270Z,3.57
2019-05-18T15:27:54.786Z,4.43
2019-05-18T15:30:24.387Z,3.80
2019-05-18T15:32:54.051Z,3.83
2019-05-18T15:35:23.504Z,3.80
2019-05-18T15:37:53.036Z,3.60
2019-05-18T15:40:22.517Z,3.93
2019-05-18T15:42:52.054Z,3.40
2019-05-18T15:45:24.544Z,5.17
2019-05-18T15:47:52.838Z,5.17
2019-05-18T15:50:22.523Z,3.27
2019-05-18T15:52:52.060Z,3.50
2019-05-18T15:55:21.577Z,3.77
2019-05-18T15:57:51.135Z,5.40
2019-05-18T16:00:21.220Z,4.97
2019-05-18T16:02:50.792Z,5.03
2019-05-18T16:05:20.280Z,4.10
2019-05-18T16:07:49.796Z,8.30
2019-05-18T16:10:19.717Z,7.20
2019-05-18T16:12:49.242Z,4.43
2019-05-18T16:15:18.891Z,4.53
2019-05-18T16:17:48.428Z,4.13
2019-05-18T16:20:18.270Z,5.00
2019-05-18T16:22:47.732Z,5.17
2019-05-18T16:25:18.116Z,4.53
2019-05-18T16:27:47.667Z,4.47
2019-05-18T16:30:17.642Z,6.40
2019-05-18T16:32:47.140Z,6.80
2019-05-18T16:35:16.953Z,4.27
2019-05-18T16:37:46.435Z,5.07
2019-05-18T16:40:16.206Z,4.80
2019-05-18T16:42:46.628Z,5.07
2019-05-18T16:45:16.778Z,5.87
2019-05-18T16:47:46.317Z,5.93
2019-05-18T16:50:16.307Z,7.67
2019-05-18T16:52:45.799Z,6.73
2019-05-18T16:55:15.420Z,6.80
2019-05-18T16:57:44.923Z,7.60
2019-05-18T17:00:16.627Z,6.93
2019-05-18T17:02:46.257Z,7.03
2019-05-18T17:05:16.191Z,6.30
2019-05-18T17:07:45.689Z,5.53
2019-05-18T17:10:16.583Z,5.53
2019-05-18T17:12:46.034Z,7.03
2019-05-18T17:15:16.314Z,7.03
2019-05-18T17:17:45.797Z,7.07
2019-05-18T17:20:15.399Z,7.67
2019-05-18T17:22:44.859Z,7.97
2019-05-18T17:25:14.448Z,10.23
2019-05-18T17:27:43.941Z,8.10
2019-05-18T17:30:13.705Z,7.77
2019-05-18T17:32:43.233Z,12.20
2019-05-18T17:35:13.205Z,8.07
2019-05-18T17:37:42.654Z,7.30
2019-05-18T17:40:12.277Z,8.67
2019-05-18T17:42:41.781Z,12.00
2019-05-18T17:45:11.597Z,12.47
2019-05-18T17:47:41.049Z,9.17
2019-05-18T17:50:11.022Z,9.33
2019-05-18T17:52:40.482Z,8.10
2019-05-18T17:55:10.467Z,7.73
2019-05-18T17:57:39.997Z,8.33
2019-05-18T18:00:10.749Z,7.17
2019-05-18T18:02:40.531Z,6.70
2019-05-18T18:05:10.432Z,9.97
2019-05-18T18:07:39.884Z,8.23
2019-05-18T18:10:09.679Z,9.60
2019-05-18T18:12:39.209Z,10.43
2019-05-18T18:15:09.233Z,7.27
2019-05-18T18:17:38.765Z,7.53
2019-05-18T18:20:08.980Z,16.90
2019-05-18T18:22:38.479Z,14.43
2019-05-18T18:25:08.663Z,10.13
2019-05-18T18:27:38.249Z,9.37
2019-05-18T18:30:08.683Z,9.70
2019-05-18T18:32:38.202Z,10.97
2019-05-18T18:35:07.881Z,6.73
2019-05-18T18:37:37.661Z,7.20
2019-05-18T18:40:08.469Z,8.83
2019-05-18T18:42:37.988Z,8.20
2019-05-18T18:45:07.675Z,7.67
2019-05-18T18:47:37.301Z,5.27
2019-05-18T18:50:07.108Z,5.93
2019-05-18T18:52:36.572Z,7.60
2019-05-18T18:55:06.538Z,7.60
2019-05-18T18:57:41.403Z,6.27
2019-05-18T19:00:08.741Z,4.73
2019-05-18T19:02:38.280Z,6.50
2019-05-18T19:05:08.037Z,5.13
2019-05-18T19:07:37.516Z,7.10
2019-05-18T19:10:07.539Z,9.07
2019-05-18T19:12:37.073Z,5.40
2019-05-18T19:15:07.104Z,5.23
2019-05-18T19:17:36.848Z,12.37
2019-05-18T19:20:06.682Z,6.77
2019-05-18T19:22:36.217Z,5.43
2019-05-18T19:25:06.083Z,7.13
2019-05-18T19:27:35.557Z,6.07
2019-05-18T19:30:09.610Z,4.10
2019-05-18T19:32:36.625Z,6.03
2019-05-18T19:35:06.512Z,7.83
2019-05-18T19:37:35.978Z,6.93
2019-05-18T19:40:05.968Z,8.30
2019-05-18T19:42:35.438Z,8.60
2019-05-18T19:45:05.279Z,9.67
2019-05-18T19:47:34.756Z,9.10
2019-05-18T19:50:04.475Z,9.30
2019-05-18T19:52:33.994Z,11.83
2019-05-18T19:55:03.461Z,8.57
2019-05-18T19:57:32.964Z,10.57
2019-05-18T20:00:02.467Z,9.53
2019-05-18T20:02:31.944Z,10.37
2019-05-18T20:05:08.121Z,10.20
2019-05-18T20:07:32.619Z,10.67
2019-05-18T20:10:02.098Z,10.63
2019-05-18T20:12:31.580Z,10.90
2019-05-18T20:15:01.414Z,10.10
2019-05-18T20:17:30.859Z,10.50
2019-05-18T20:20:00.358Z,8.63
2019-05-18T20:22:29.825Z,10.60
2019-05-18T20:24:59.290Z,9.87
2019-05-18T20:27:28.752Z,8.60
2019-05-18T20:29:58.241Z,8.90
2019-05-18T20:32:27.717Z,10.87
2019-05-18T20:34:57.174Z,10.47
2019-05-18T20:37:26.643Z,10.13
2019-05-18T20:39:56.123Z,12.30
2019-05-18T20:42:25.570Z,9.87
2019-05-18T20:44:55.067Z,10.97
2019-05-18T20:47:24.542Z,8.40
2019-05-18T20:49:53.993Z,8.67
2019-05-18T20:52:23.468Z,9.23
2019-05-18T20:54:52.947Z,9.90
2019-05-18T20:57:22.426Z,9.83
2019-05-18T20:59:51.899Z,10.03
2019-05-18T21:02:21.404Z,8.97
2019-05-18T21:04:50.903Z,10.47
2019-05-18T21:07:20.360Z,8.97
2019-05-18T21:09:49.820Z,10.10
2019-05-18T21:12:19.338Z,11.97
2019-05-18T21:14:48.816Z,7.57
2019-05-18T21:17:18.263Z,7.97
2019-05-18T21:19:47.735Z,10.80
2019-05-18T21:22:19.619Z,10.30
2019-05-18T21:24:49.122Z,9.80
2019-05-18T21:27:18.594Z,9.97
2019-05-18T21:29:48.081Z,9.50
2019-05-18T21:32:17.544Z,10.83
2019-05-18T21:34:47.050Z,10.27
2019-05-18T21:37:16.551Z,28.23
2019-05-18T21:39:46.036Z,13.33
2019-05-18T21:42:15.491Z,9.53
2019-05-18T21:44:45.047Z,10.43
2019-05-18T21:47:14.511Z,12.07
2019-05-18T21:49:43.972Z,14.57
2019-05-18T21:52:13.458Z,10.63
2019-05-18T21:54:42.989Z,10.60
2019-05-18T21:57:12.460Z,10.03
2019-05-18T21:59:41.945Z,10.40
2019-05-18T22:02:11.498Z,9.33
2019-05-18T22:04:40.983Z,10.27
2019-05-18T22:07:10.443Z,10.63
2019-05-18T22:09:39.932Z,11.10
2019-05-18T22:12:09.434Z,11.83
2019-05-18T22:14:38.917Z,9.90
2019-05-18T22:17:08.378Z,9.90
2019-05-18T22:19:37.846Z,9.00
2019-05-18T22:22:07.311Z,9.00
2019-05-18T22:24:36.812Z,8.77
2019-05-18T22:27:06.278Z,9.63
2019-05-18T22:29:35.762Z,8.90
2019-05-18T22:32:05.231Z,8.67
2019-05-18T22:34:34.746Z,8.57
2019-05-18T22:37:04.258Z,9.03
2019-05-18T22:39:33.770Z,9.43
2019-05-18T22:42:03.305Z,9.77
2019-05-18T22:44:32.863Z,9.40
2019-05-18T22:47:02.360Z,8.40
2019-05-18T22:49:31.886Z,9.60
2019-05-18T22:52:01.399Z,8.67
2019-05-18T22:54:30.935Z,8.97
2019-05-18T22:57:00.369Z,9.50
2019-05-18T22:59:29.854Z,9.27
2019-05-18T23:01:59.339Z,8.30
2019-05-18T23:04:28.844Z,8.87
2019-05-18T23:06:58.306Z,9.30
2019-05-18T23:09:27.794Z,8.43
2019-05-18T23:11:57.238Z,7.83
2019-05-18T23:14:26.800Z,9.47
2019-05-18T23:16:56.296Z,8.83
2019-05-18T23:19:25.779Z,7.87
2019-05-18T23:21:55.217Z,6.73
2019-05-18T23:24:24.734Z,9.63
2019-05-18T23:26:54.188Z,8.90
2019-05-18T23:29:23.646Z,9.00
2019-05-18T23:31:53.141Z,9.07
2019-05-18T23:34:22.643Z,7.27
2019-05-18T23:36:52.124Z,7.80
2019-05-18T23:39:21.608Z,8.53
2019-05-18T23:41:51.072Z,8.77
2019-05-18T23:44:20.581Z,8.73
2019-05-18T23:46:50.053Z,9.60
2019-05-18T23:49:19.530Z,9.37
2019-05-18T23:51:49.019Z,9.00
2019-05-18T23:54:18.545Z,9.43
2019-05-18T23:56:47.989Z,9.07
2019-05-18T23:59:17.449Z,10.30
